Time;durP1;ratioP1;P1;durP2;ratioP2;P2;SDS_P1;SDS_P2;PMS_P1;PMS_P2;Temp;Humidity;BMP_temperature;BMP_pressure;BME280_temperature;BME280_humidity;BME280_pressure;Samples;Min_cycle;Max_cycle;Signal;HPM_P1;HPM_P2
2023/04/18 11:19:35;;;;;;;3.33;2.40;;;;;;;12.89;92.05;96590.00;5135308;27;20567;-72
2023/04/18 11:22:02;;;;;;;1.33;1.17;;;;;;;12.70;92.63;96594.94;5136403;27;20233;-72
2023/04/18 11:24:29;;;;;;;2.88;2.03;;;;;;;12.71;93.55;96591.28;5135128;27;20730;-72
2023/04/18 11:26:56;;;;;;;3.25;2.08;;;;;;;12.64;92.58;96593.03;5134700;27;20245;-72
2023/04/18 11:29:22;;;;;;;2.83;1.98;;;;;;;12.87;94.05;96596.47;5134339;27;20216;-72
2023/04/18 11:31:52;;;;;;;1.30;1.20;;;;;;;13.03;95.98;96593.63;5135190;27;20260;-72
2023/04/18 11:34:19;;;;;;;1.05;0.98;;;;;;;12.76;93.25;96598.69;5135400;27;20305;-72
2023/04/18 11:36:50;;;;;;;2.90;1.67;;;;;;;12.73;93.35;96597.25;5134746;27;20789;-72
2023/04/18 11:39:17;;;;;;;1.03;1.03;;;;;;;12.66;91.49;96588.38;5131534;27;20221;-72
2023/04/18 11:41:49;;;;;;;1.90;1.47;;;;;;;12.68;92.43;96594.31;5134181;27;20209;-72
2023/04/18 11:44:16;;;;;;;2.53;1.50;;;;;;;12.89;93.14;96584.69;5135163;27;21000;-72
2023/04/18 11:46:43;;;;;;;2.25;1.90;;;;;;;13.18;90.63;96589.97;5134603;27;20209;-72
2023/04/18 11:49:24;;;;;;;3.55;1.27;;;;;;;13.48;90.76;96587.09;5133812;27;20201;-72
2023/04/18 11:51:52;;;;;;;1.65;1.35;;;;;;;13.28;91.08;96594.97;5134250;27;20283;-72
2023/04/18 11:54:38;;;;;;;2.17;1.20;;;;;;;13.73;92.28;96596.31;5134398;27;20778;-72
2023/04/18 11:57:05;;;;;;;1.58;1.48;;;;;;;13.25;90.86;96597.97;5134217;27;20689;-72
2023/04/18 11:59:32;;;;;;;2.47;2.10;;;;;;;13.06;87.71;96595.88;5134533;27;20354;-72
2023/04/18 12:02:00;;;;;;;2.05;1.60;;;;;;;13.34;89.20;96596.88;5134080;27;20202;-72
2023/04/18 12:04:27;;;;;;;1.40;1.17;;;;;;;13.16;88.67;96596.44;5134401;27;20226;-72
2023/04/18 12:06:55;;;;;;;5.07;2.65;;;;;;;13.19;87.35;96598.72;5134209;27;20205;-72
2023/04/18 12:09:24;;;;;;;1.75;1.55;;;;;;;12.97;88.92;96600.47;5134317;27;20199;-72
2023/04/18 12:11:57;;;;;;;3.50;2.03;;;;;;;13.16;87.46;96601.72;5133883;27;20274;-72
2023/04/18 12:14:23;;;;;;;1.23;1.10;;;;;;;13.20;86.20;96595.91;5134279;27;20656;-72
2023/04/18 12:16:50;;;;;;;1.52;1.02;;;;;;;13.00;87.88;96597.44;5134697;27;20201;-72
2023/04/18 12:19:19;;;;;;;3.53;2.47;;;;;;;13.07;85.99;96602.81;5133195;27;20693;-72
2023/04/18 12:21:59;;;;;;;2.13;1.35;;;;;;;12.99;89.47;96598.44;5132863;27;20202;-72
2023/04/18 12:24:27;;;;;;;1.45;1.35;;;;;;;12.94;89.50;96602.66;5134236;27;20221;-72
2023/04/18 12:26:54;;;;;;;2.33;1.27;;;;;;;12.98;89.56;96596.84;5133660;27;20209;-72
2023/04/18 12:29:21;;;;;;;1.73;1.17;;;;;;;12.77;88.78;96595.88;5128923;27;20201;-72
2023/04/18 12:31:47;;;;;;;2.30;1.27;;;;;;;12.66;89.07;96600.78;5119621;27;20199;-72
2023/04/18 12:34:14;;;;;;;1.83;1.17;;;;;;;12.52;89.98;96599.75;5120058;27;20222;-72
2023/04/18 12:36:40;;;;;;;1.60;1.50;;;;;;;12.37;93.47;96598.91;5119153;27;20213;-72
2023/04/18 12:39:09;;;;;;;2.73;1.60;;;;;;;12.20;95.21;96593.94;5119367;27;20258;-72
2023/04/18 12:41:35;;;;;;;1.35;1.08;;;;;;;12.17;95.82;96605.69;5119471;27;20202;-72
2023/04/18 12:44:02;;;;;;;1.40;0.80;;;;;;;12.10;94.41;96598.66;5119692;27;20224;-72
2023/04/18 12:46:28;;;;;;;0.50;0.50;;;;;;;12.14;95.94;96605.22;5119858;27;20251;-72
2023/04/18 12:48:56;;;;;;;0.80;0.80;;;;;;;11.91;96.53;96595.66;5118845;27;20194;-72
2023/04/18 12:51:22;;;;;;;1.43;1.33;;;;;;;12.04;95.14;96590.63;5119522;27;20206;-72
2023/04/18 12:53:49;;;;;;;4.53;1.37;;;;;;;12.02;95.88;96609.28;5119246;27;20227;-72
2023/04/18 12:56:16;;;;;;;2.83;1.97;;;;;;;12.16;96.55;96605.06;5119742;27;20503;-72
2023/04/18 12:58:43;;;;;;;2.27;2.07;;;;;;;12.08;96.73;96603.31;5118839;27;20233;-72
2023/04/18 13:01:10;;;;;;;2.33;1.63;;;;;;;12.22;99.04;96605.97;5119137;27;20202;-72
2023/04/18 13:03:36;;;;;;;3.40;1.23;;;;;;;12.21;100.00;96596.41;5118821;27;20733;-72
2023/04/18 13:06:04;;;;;;;2.47;2.27;;;;;;;12.43;95.02;96597.38;5119850;27;20587;-72
2023/04/18 13:08:31;;;;;;;0.80;0.80;;;;;;;12.70;94.14;96599.41;5118469;27;20198;-72
2023/04/18 13:10:57;;;;;;;4.17;1.30;;;;;;;12.95;94.73;96596.38;5119348;27;20984;-72
2023/04/18 13:13:26;;;;;;;1.73;1.20;;;;;;;13.08;93.33;96593.91;5119573;27;20222;-72
2023/04/18 13:15:53;;;;;;;0.70;0.70;;;;;;;12.74;91.58;96596.25;5119143;27;20202;-72
2023/04/18 13:18:19;;;;;;;0.77;0.75;;;;;;;12.52;90.46;96591.00;5118589;27;20218;-72
2023/04/18 13:20:46;;;;;;;1.55;1.45;;;;;;;12.40;91.40;96595.09;5119160;27;20708;-72
2023/04/18 13:23:12;;;;;;;0.80;0.80;;;;;;;12.34;91.03;96599.25;5119102;27;20231;-72
2023/04/18 13:25:39;;;;;;;1.40;1.30;;;;;;;12.21;92.42;96595.59;5118902;27;20209;-72
2023/04/18 13:28:05;;;;;;;1.30;1.20;;;;;;;12.14;92.54;96597.28;5119702;27;20199;-72
2023/04/18 13:30:34;;;;;;;1.40;0.70;;;;;;;12.17;92.96;96600.41;5118535;27;20214;-72
2023/04/18 13:33:00;;;;;;;2.30;1.37;;;;;;;12.06;94.55;96601.84;5117871;27;20230;-72
2023/04/18 13:35:27;;;;;;;2.30;0.93;;;;;;;12.02;94.84;96601.38;5118535;27;20233;-72
2023/04/18 13:37:53;;;;;;;0.82;0.82;;;;;;;12.17;94.89;96604.88;5118581;27;20222;-72
2023/04/18 13:40:20;;;;;;;1.30;0.63;;;;;;;12.14;96.76;96596.47;5118218;27;20677;-72
2023/04/18 13:42:47;;;;;;;0.87;0.87;;;;;;;12.29;94.91;96600.81;5117491;27;20824;-72
2023/04/18 13:45:13;;;;;;;1.17;0.93;;;;;;;12.37;93.72;96598.09;5118667;27;20669;-72
2023/04/18 13:47:41;;;;;;;0.97;0.93;;;;;;;12.49;93.94;96605.41;5117663;27;20253;-72
2023/04/18 13:50:08;;;;;;;1.23;1.20;;;;;;;12.50;95.84;96599.13;5118083;27;20206;-72
2023/04/18 13:52:35;;;;;;;2.27;1.70;;;;;;;12.48;95.04;96601.13;5118592;27;20218;-72
2023/04/18 13:55:02;;;;;;;1.03;1.03;;;;;;;12.62;92.33;96610.88;5118046;27;20225;-72
2023/04/18 13:57:30;;;;;;;1.90;1.27;;;;;;;12.58;93.76;96606.97;5117735;27;21008;-72
2023/04/18 13:59:57;;;;;;;1.23;1.13;;;;;;;12.49;92.61;96601.94;5117174;27;20226;-72
2023/04/18 14:02:23;;;;;;;1.83;1.57;;;;;;;12.61;92.12;96600.50;5117628;27;20721;-72
2023/04/18 14:04:53;;;;;;;1.55;1.27;;;;;;;12.92;90.86;96600.19;5117713;27;20586;-72
2023/04/18 14:07:19;;;;;;;1.27;1.23;;;;;;;12.93;89.66;96595.72;5117362;27;20251;-72
2023/04/18 14:09:46;;;;;;;1.83;0.90;;;;;;;12.82;92.19;96602.25;5118526;27;20194;-72
2023/04/18 14:12:13;;;;;;;2.97;1.50;;;;;;;12.78;90.55;96603.63;5118505;27;20325;-72
2023/04/18 14:14:40;;;;;;;0.63;0.63;;;;;;;12.67;90.64;96605.88;5118397;27;20380;-72
2023/04/18 14:17:06;;;;;;;9.50;1.77;;;;;;;12.61;90.34;96603.97;5117624;27;20202;-72
2023/04/18 14:19:33;;;;;;;1.67;1.43;;;;;;;12.79;90.09;96609.72;5116487;27;21025;-72
2023/04/18 14:22:01;;;;;;;1.85;1.75;;;;;;;12.64;89.38;96598.31;5117074;27;20241;-72
2023/04/18 14:24:27;;;;;;;2.30;1.03;;;;;;;12.44;94.02;96602.47;5117514;27;20708;-72
2023/04/18 14:26:54;;;;;;;1.83;1.10;;;;;;;12.57;94.10;96600.03;5117087;27;20253;-72
2023/04/18 14:29:20;;;;;;;1.05;0.95;;;;;;;12.64;93.42;96605.41;5116375;27;20199;-72
2023/04/18 14:31:47;;;;;;;1.60;0.67;;;;;;;12.76;93.10;96604.00;5117922;27;20218;-72
2023/04/18 14:34:13;;;;;;;4.27;1.70;;;;;;;12.81;93.18;96602.44;5117130;27;20226;-72
2023/04/18 14:36:40;;;;;;;1.70;1.48;;;;;;;12.99;90.37;96601.09;5117100;27;21043;-72
2023/04/18 14:39:08;;;;;;;0.82;0.82;;;;;;;13.03;91.35;96596.25;5117305;27;20599;-72
2023/04/18 14:41:36;;;;;;;1.50;0.98;;;;;;;12.87;91.31;96593.81;5116626;27;20206;-72
2023/04/18 14:44:03;;;;;;;3.40;1.37;;;;;;;12.79;92.38;96599.13;5116783;27;20229;-72
2023/04/18 14:46:30;;;;;;;3.50;2.17;;;;;;;12.54;91.73;96597.75;5117007;27;20262;-72
2023/04/18 14:48:56;;;;;;;1.20;1.05;;;;;;;12.65;92.46;96604.44;5117216;27;20203;-72
2023/04/18 14:51:23;;;;;;;2.00;1.07;;;;;;;12.53;92.43;96600.59;5116396;27;20202;-72
2023/04/18 14:53:50;;;;;;;1.30;1.25;;;;;;;12.47;93.27;96599.47;5117240;27;20222;-72
2023/04/18 14:56:19;;;;;;;1.23;0.90;;;;;;;12.40;96.94;96609.13;5116849;27;20297;-72
2023/04/18 14:58:46;;;;;;;1.25;1.13;;;;;;;12.21;97.29;96603.53;5115741;27;20227;-72
2023/04/18 15:01:13;;;;;;;3.20;1.75;;;;;;;12.20;98.91;96602.69;5115899;27;20264;-72
2023/04/18 15:03:40;;;;;;;0.80;0.80;;;;;;;12.17;96.57;96607.53;5116700;27;20238;-72
2023/04/18 15:06:07;;;;;;;1.17;1.08;;;;;;;12.09;97.80;96610.22;5116723;27;20238;-72
2023/04/18 15:08:33;;;;;;;4.20;0.88;;;;;;;12.07;95.31;96611.41;5116298;27;20283;-72
2023/04/18 15:11:00;;;;;;;1.73;1.50;;;;;;;12.04;94.89;96609.09;5116985;27;20206;-71
2023/04/18 15:13:28;;;;;;;1.40;1.30;;;;;;;12.12;95.13;96611.69;5116063;27;20261;-71
2023/04/18 15:15:56;;;;;;;2.73;1.40;;;;;;;11.90;95.87;96617.78;5115678;27;20209;-71
2023/04/18 15:18:22;;;;;;;1.63;1.53;;;;;;;11.92;95.92;96603.41;5115390;27;20242;-71
2023/04/18 15:20:49;;;;;;;0.57;0.57;;;;;;;11.85;97.46;96618.34;5116294;27;20217;-72
2023/04/18 15:23:15;;;;;;;1.93;1.40;;;;;;;11.99;96.96;96616.72;5115387;27;20222;-72
2023/04/18 15:25:43;;;;;;;2.20;1.37;;;;;;;11.99;99.50;96611.44;5118154;27;20204;-71
2023/04/18 15:28:10;;;;;;;1.30;0.87;;;;;;;12.03;97.57;96613.56;5116004;27;20198;-71
2023/04/18 15:30:38;;;;;;;6.93;1.60;;;;;;;11.99;95.27;96614.94;5117048;27;20215;-71
2023/04/18 15:33:05;;;;;;;1.30;1.17;;;;;;;11.95;96.63;96613.66;5116796;27;20587;-71
2023/04/18 15:35:31;;;;;;;2.60;1.27;;;;;;;11.96;96.79;96615.25;5118009;27;20202;-71
2023/04/18 15:37:58;;;;;;;1.83;1.33;;;;;;;12.08;96.67;96615.66;5116189;27;20198;-71
2023/04/18 15:40:25;;;;;;;2.10;1.90;;;;;;;12.11;96.13;96613.50;5117561;27;20218;-71
2023/04/18 15:42:53;;;;;;;1.30;1.20;;;;;;;12.08;95.58;96616.50;5116933;27;20589;-71
2023/04/18 15:45:19;;;;;;;2.30;1.03;;;;;;;12.06;94.65;96615.03;5118151;27;20202;-72
2023/04/18 15:47:47;;;;;;;1.73;1.53;;;;;;;12.10;95.84;96616.34;5115818;27;20198;-71
2023/04/18 15:50:14;;;;;;;3.43;1.10;;;;;;;11.98;96.15;96608.00;5117312;27;20213;-71
2023/04/18 15:52:41;;;;;;;1.10;0.77;;;;;;;12.02;96.35;96617.22;5117889;27;20233;-71
2023/04/18 15:55:10;;;;;;;1.95;1.58;;;;;;;11.98;95.56;96609.84;5117847;27;20237;-71
2023/04/18 15:57:36;;;;;;;1.27;1.13;;;;;;;11.94;96.66;96621.72;5116187;27;20210;-71
2023/04/18 16:00:08;;;;;;;0.70;0.70;;;;;;;11.99;96.45;96632.56;5117396;27;20706;-71
2023/04/18 16:02:35;;;;;;;1.60;1.20;;;;;;;11.93;97.22;96620.91;5116405;27;20234;-72
2023/04/18 16:05:03;;;;;;;1.15;1.05;;;;;;;12.07;98.34;96621.97;5119586;27;20262;-71
2023/04/18 16:07:30;;;;;;;1.05;0.85;;;;;;;11.75;100.00;96630.13;5120383;27;20206;-71
2023/04/18 16:09:56;;;;;;;1.83;1.43;;;;;;;11.92;100.00;96623.72;5120827;27;20203;-71
2023/04/18 16:12:23;;;;;;;1.83;1.17;;;;;;;11.84;100.00;96627.25;5121124;27;20237;-71
2023/04/18 16:14:49;;;;;;;1.47;1.20;;;;;;;11.83;100.00;96635.34;5121158;27;20207;-71
2023/04/18 16:17:16;;;;;;;5.83;1.33;;;;;;;11.96;100.00;96636.38;5120032;27;20250;-71
2023/04/18 16:19:42;;;;;;;1.97;1.37;;;;;;;11.90;100.00;96628.34;5120685;27;20701;-72
2023/04/18 16:22:11;;;;;;;1.65;1.25;;;;;;;11.92;100.00;96634.28;5120457;27;20305;-72
2023/04/18 16:24:37;;;;;;;1.23;1.13;;;;;;;11.83;100.00;96636.16;5120735;27;20207;-71
2023/04/18 16:27:05;;;;;;;2.25;1.38;;;;;;;11.79;100.00;96636.69;5121145;27;20199;-71
2023/04/18 16:29:31;;;;;;;2.53;1.53;;;;;;;11.75;100.00;96640.69;5120154;27;20721;-71
2023/04/18 16:31:58;;;;;;;0.50;0.50;;;;;;;11.67;100.00;96640.72;5117611;27;20214;-72
2023/04/18 16:34:24;;;;;;;1.65;1.25;;;;;;;11.77;99.14;96641.31;5116993;27;20227;-71
2023/04/18 16:36:51;;;;;;;1.30;0.82;;;;;;;11.65;97.84;96642.72;5119220;27;20214;-71
2023/04/18 16:39:19;;;;;;;0.97;0.93;;;;;;;11.65;95.36;96643.53;5118281;27;20233;-71
2023/04/18 16:41:45;;;;;;;1.60;1.13;;;;;;;11.57;96.23;96645.41;5119108;27;20203;-71
2023/04/18 16:44:11;;;;;;;0.43;0.43;;;;;;;11.56;96.12;96643.75;5118483;27;20223;-71
2023/04/18 16:46:38;;;;;;;2.07;1.37;;;;;;;11.57;95.43;96642.78;5119124;27;20199;-71
2023/04/18 16:49:05;;;;;;;1.60;1.03;;;;;;;11.50;96.01;96644.44;5118205;27;20203;-71
2023/04/18 16:51:32;;;;;;;2.67;1.33;;;;;;;11.54;95.76;96644.91;5118586;27;20209;-71
2023/04/18 16:53:59;;;;;;;0.77;0.77;;;;;;;11.49;95.98;96655.13;5118747;27;20522;-71
2023/04/18 16:56:26;;;;;;;1.60;1.50;;;;;;;11.62;95.83;96643.88;5118584;27;20214;-71
2023/04/18 16:58:53;;;;;;;1.10;0.93;;;;;;;11.62;96.76;96645.69;5118303;27;20213;-71
2023/04/18 17:01:20;;;;;;;0.73;0.73;;;;;;;11.65;96.73;96653.28;5118106;27;20205;-72
2023/04/18 17:03:46;;;;;;;1.07;1.07;;;;;;;11.64;97.39;96651.63;5118445;27;20812;-71
2023/04/18 17:06:13;;;;;;;1.73;1.00;;;;;;;11.55;97.55;96653.47;5115774;27;20198;-71
2023/04/18 17:08:39;;;;;;;1.63;1.03;;;;;;;11.57;97.21;96650.69;5118707;27;20214;-71
2023/04/18 17:11:06;;;;;;;1.27;1.17;;;;;;;11.39;97.81;96657.16;5118095;27;20195;-71
2023/04/18 17:13:34;;;;;;;0.70;0.70;;;;;;;11.46;98.68;96658.94;5117794;27;20234;-71
2023/04/18 17:16:02;;;;;;;3.13;1.03;;;;;;;11.41;97.96;96656.00;5117834;27;20210;-71
2023/04/18 17:18:28;;;;;;;2.47;1.67;;;;;;;11.44;98.12;96658.28;5117792;27;20279;-71
2023/04/18 17:20:55;;;;;;;2.30;0.93;;;;;;;11.58;98.29;96663.72;5117725;27;20233;-71
2023/04/18 17:23:21;;;;;;;1.43;1.17;;;;;;;11.53;97.84;96659.91;5118247;27;20226;-71
2023/04/18 17:25:48;;;;;;;3.95;1.02;;;;;;;11.53;99.12;96659.09;5118032;27;20225;-71
2023/04/18 17:28:15;;;;;;;4.87;2.40;;;;;;;11.40;99.23;96666.72;5116976;27;21374;-71
2023/04/18 17:30:43;;;;;;;2.80;2.07;;;;;;;11.46;98.40;96658.94;5117934;27;20199;-71
2023/04/18 17:33:10;;;;;;;3.20;1.53;;;;;;;11.57;98.10;96655.97;5117088;27;20222;-71
2023/04/18 17:35:36;;;;;;;1.17;1.07;;;;;;;11.43;99.20;96655.81;5115949;27;20210;-71
2023/04/18 17:38:03;;;;;;;1.27;0.70;;;;;;;11.39;98.59;96659.78;5112865;27;20840;-72
2023/04/18 17:40:29;;;;;;;2.07;1.50;;;;;;;11.39;99.81;96658.00;5117059;27;20313;-72
2023/04/18 17:42:56;;;;;;;1.43;1.20;;;;;;;11.32;100.00;96659.66;5113676;27;20230;-72
2023/04/18 17:45:22;;;;;;;0.80;0.80;;;;;;;11.39;99.62;96662.44;5116224;27;20202;-72
2023/04/18 17:47:50;;;;;;;1.60;1.00;;;;;;;11.48;100.00;96662.25;5115404;27;20897;-71
2023/04/18 17:50:17;;;;;;;1.10;0.97;;;;;;;11.29;100.00;96667.09;5114339;27;20777;-71
2023/04/18 17:52:45;;;;;;;7.27;1.60;;;;;;;11.12;100.00;96670.78;5116624;27;20218;-71
2023/04/18 17:55:11;;;;;;;1.23;0.70;;;;;;;11.20;100.00;96661.03;5116898;27;20202;-71
2023/04/18 17:57:38;;;;;;;2.53;1.73;;;;;;;11.22;100.00;96671.41;5116457;27;20237;-71
2023/04/18 18:00:10;;;;;;;2.93;2.07;;;;;;;11.14;100.00;96674.09;5117289;27;20225;-71
2023/04/18 18:02:36;;;;;;;1.60;0.93;;;;;;;11.04;100.00;96665.53;5116722;27;20733;-71
2023/04/18 18:05:05;;;;;;;2.10;1.27;;;;;;;11.08;100.00;96670.28;5117568;27;20198;-71
2023/04/18 18:07:35;;;;;;;3.07;1.37;;;;;;;11.07;100.00;96667.81;5116515;27;20203;-71
2023/04/18 18:10:02;;;;;;;1.40;1.10;;;;;;;11.10;100.00;96668.31;5117228;27;20236;-71
2023/04/18 18:12:29;;;;;;;1.43;1.00;;;;;;;11.00;100.00;96672.97;5117385;27;20222;-71
2023/04/18 18:14:56;;;;;;;1.43;1.13;;;;;;;11.04;100.00;96674.25;5116723;27;20583;-71
2023/04/18 18:17:23;;;;;;;3.90;1.70;;;;;;;10.90;100.00;96671.50;5115739;27;20242;-71
2023/04/18 18:19:49;;;;;;;3.57;1.87;;;;;;;10.81;100.00;96671.69;5117541;27;20744;-71
2023/04/18 18:22:17;;;;;;;2.93;1.80;;;;;;;10.96;100.00;96676.13;5115979;27;20217;-71
2023/04/18 18:24:44;;;;;;;1.87;1.57;;;;;;;10.85;100.00;96673.81;5115536;27;20945;-71
2023/04/18 18:27:10;;;;;;;1.40;1.10;;;;;;;10.91;100.00;96677.59;5115792;27;20696;-71
2023/04/18 18:29:37;;;;;;;1.87;1.23;;;;;;;10.87;100.00;96676.28;5116874;27;20199;-71
2023/04/18 18:32:04;;;;;;;1.40;0.97;;;;;;;10.78;100.00;96677.28;5116425;27;20443;-71
2023/04/18 18:34:30;;;;;;;3.37;2.53;;;;;;;10.73;100.00;96682.25;5117000;27;20255;-71
2023/04/18 18:36:57;;;;;;;1.57;1.33;;;;;;;10.87;100.00;96685.03;5116473;27;20210;-71
2023/04/18 18:39:25;;;;;;;1.70;1.60;;;;;;;10.91;100.00;96688.97;5116339;27;20202;-71
2023/04/18 18:41:52;;;;;;;2.90;1.87;;;;;;;10.70;100.00;96695.75;5116146;27;21066;-71
2023/04/18 18:44:18;;;;;;;5.17;1.47;;;;;;;10.70;100.00;96698.41;5117100;27;21525;-71
2023/04/18 18:46:44;;;;;;;1.47;1.37;;;;;;;10.78;100.00;96693.94;5116729;27;20742;-71
2023/04/18 18:49:11;;;;;;;2.50;2.03;;;;;;;10.58;100.00;96697.91;5116116;27;20205;-71
2023/04/18 18:51:37;;;;;;;2.03;1.87;;;;;;;12.06;100.00;96699.56;5117149;27;20203;-71
2023/04/18 18:54:04;;;;;;;1.83;0.83;;;;;;;12.09;99.87;96694.75;5116615;27;20773;-71
2023/04/18 18:56:32;;;;;;;3.17;1.80;;;;;;;11.63;99.73;96702.78;5117319;27;20198;-70
2023/04/18 18:58:58;;;;;;;2.20;1.57;;;;;;;11.18;100.00;96696.50;5116373;27;20211;-71
2023/04/18 19:01:25;;;;;;;1.43;1.33;;;;;;;11.09;100.00;96703.59;5117074;27;20229;-71
2023/04/18 19:03:51;;;;;;;1.77;1.67;;;;;;;10.91;100.00;96703.97;5116449;27;20233;-71
2023/04/18 19:06:18;;;;;;;4.77;1.17;;;;;;;10.71;100.00;96711.41;5113961;27;20207;-71
2023/04/18 19:08:44;;;;;;;1.80;1.23;;;;;;;10.70;100.00;96711.56;5113497;27;20210;-71
2023/04/18 19:11:11;;;;;;;2.10;1.33;;;;;;;10.68;100.00;96713.53;5116372;27;20198;-71
2023/04/18 19:13:39;;;;;;;1.50;1.40;;;;;;;10.76;100.00;96716.19;5115831;27;20221;-71
2023/04/18 19:16:06;;;;;;;2.10;1.13;;;;;;;10.55;100.00;96726.41;5115941;27;20209;-71
2023/04/18 19:18:32;;;;;;;1.57;1.47;;;;;;;10.58;100.00;96719.00;5113788;27;20222;-71
2023/04/18 19:20:59;;;;;;;2.63;1.67;;;;;;;10.56;100.00;96725.41;5115883;27;20222;-71
2023/04/18 19:23:26;;;;;;;1.27;1.20;;;;;;;10.62;100.00;96725.56;5116600;27;20240;-71
2023/04/18 19:25:53;;;;;;;2.37;1.57;;;;;;;10.50;100.00;96729.53;5116197;27;20213;-71
2023/04/18 19:28:21;;;;;;;1.83;1.67;;;;;;;10.57;100.00;96734.97;5115447;27;20202;-71
2023/04/18 19:30:49;;;;;;;1.27;1.20;;;;;;;10.64;100.00;96728.03;5115593;27;20209;-71
2023/04/18 19:33:16;;;;;;;3.07;2.03;;;;;;;10.68;100.00;96732.00;5116229;27;20222;-71
2023/04/18 19:35:42;;;;;;;2.20;1.70;;;;;;;10.58;100.00;96739.25;5115915;27;20727;-71
2023/04/18 19:38:09;;;;;;;1.40;1.20;;;;;;;10.66;100.00;96729.53;5114755;27;20211;-71
2023/04/18 19:40:36;;;;;;;2.63;2.43;;;;;;;10.62;100.00;96743.22;5118440;27;20229;-71
2023/04/18 19:43:02;;;;;;;2.60;2.20;;;;;;;10.70;100.00;96735.28;5120298;27;20217;-71
2023/04/18 19:45:30;;;;;;;2.43;1.80;;;;;;;10.67;100.00;96738.28;5118689;27;20205;-71
2023/04/18 19:47:58;;;;;;;1.50;1.30;;;;;;;10.61;100.00;96741.56;5119183;27;20204;-71
2023/04/18 19:50:24;;;;;;;2.90;1.33;;;;;;;10.56;100.00;96742.03;5117564;27;20203;-71
2023/04/18 19:52:51;;;;;;;4.60;1.57;;;;;;;10.56;100.00;96743.88;5118716;27;21271;-71
2023/04/18 19:55:17;;;;;;;1.63;1.53;;;;;;;10.47;100.00;96742.22;5119458;27;20206;-71
2023/04/18 19:57:44;;;;;;;1.57;1.47;;;;;;;10.54;100.00;96743.22;5118826;27;20228;-71
2023/04/18 20:00:12;;;;;;;2.23;2.03;;;;;;;10.45;100.00;96739.75;5117632;27;20339;-71
2023/04/18 20:02:40;;;;;;;3.23;1.77;;;;;;;10.50;100.00;96744.50;5119939;27;20222;-71
2023/04/18 20:05:10;;;;;;;2.93;1.93;;;;;;;10.46;100.00;96740.56;5119936;27;20198;-71
2023/04/18 20:07:36;;;;;;;1.23;1.07;;;;;;;10.37;100.00;96747.66;5119661;27;20599;-71
2023/04/18 20:10:04;;;;;;;1.83;1.00;;;;;;;10.31;100.00;96746.66;5119530;27;20257;-71
2023/04/18 20:12:30;;;;;;;2.37;1.37;;;;;;;10.40;100.00;96746.50;5120260;27;20225;-71
2023/04/18 20:14:57;;;;;;;0.83;0.83;;;;;;;10.31;100.00;96747.47;5118510;27;20213;-71
2023/04/18 20:17:24;;;;;;;5.43;1.60;;;;;;;10.26;100.00;96748.94;5118379;27;20221;-71
2023/04/18 20:19:50;;;;;;;1.67;1.53;;;;;;;10.34;100.00;96747.16;5118262;27;20572;-71
2023/04/18 20:22:19;;;;;;;1.00;0.90;;;;;;;10.42;100.00;96749.78;5116892;27;20218;-71
2023/04/18 20:24:47;;;;;;;1.37;1.30;;;;;;;10.31;100.00;96752.75;5118554;27;20207;-71
2023/04/18 20:27:14;;;;;;;1.17;1.07;;;;;;;10.26;100.00;96747.16;5118851;27;20256;-71
2023/04/18 20:29:40;;;;;;;2.63;1.00;;;;;;;10.27;100.00;96753.22;5118931;27;20281;-71
2023/04/18 20:32:07;;;;;;;1.33;0.80;;;;;;;10.29;100.00;96744.19;5119285;27;20194;-71
2023/04/18 20:34:34;;;;;;;1.53;1.33;;;;;;;10.34;100.00;96760.31;5119539;27;20567;-71
2023/04/18 20:37:01;;;;;;;1.10;1.03;;;;;;;10.41;100.00;96759.50;5118583;27;20198;-73
2023/04/18 20:39:30;;;;;;;0.70;0.70;;;;;;;10.38;100.00;96753.72;5119824;27;20685;-71
2023/04/18 20:41:58;;;;;;;2.13;1.43;;;;;;;10.27;100.00;96750.59;5118872;27;20215;-71
2023/04/18 20:44:29;;;;;;;0.90;0.90;;;;;;;10.38;100.00;96751.91;5119185;27;20218;-71
2023/04/18 20:46:57;;;;;;;3.90;1.27;;;;;;;10.16;100.00;96743.84;5119226;27;20206;-71
2023/04/18 20:49:23;;;;;;;1.33;1.07;;;;;;;10.12;100.00;96744.31;5118436;27;20194;-71
2023/04/18 20:51:50;;;;;;;0.53;0.53;;;;;;;10.19;100.00;96748.75;5117218;27;20889;-71
2023/04/18 20:54:17;;;;;;;2.23;0.97;;;;;;;10.03;100.00;96754.00;5119148;27;20736;-71
2023/04/18 20:56:45;;;;;;;0.43;0.43;;;;;;;10.03;100.00;96748.75;5118654;27;20213;-71
2023/04/18 20:59:11;;;;;;;1.63;1.30;;;;;;;9.94;100.00;96749.69;5118332;27;20578;-71
2023/04/18 21:01:38;;;;;;;2.80;1.53;;;;;;;10.02;100.00;96752.34;5118366;27;20229;-71
2023/04/18 21:04:04;;;;;;;2.10;2.00;;;;;;;9.90;100.00;96752.78;5118632;27;20218;-71
2023/04/18 21:06:31;;;;;;;1.30;1.03;;;;;;;9.87;100.00;96759.19;5118625;27;20206;-71
2023/04/18 21:08:58;;;;;;;1.33;1.23;;;;;;;9.98;100.00;96756.31;5117832;27;20234;-71
2023/04/18 21:11:24;;;;;;;1.63;1.53;;;;;;;9.88;100.00;96760.84;5118670;27;20666;-71
2023/04/18 21:13:52;;;;;;;1.80;1.47;;;;;;;10.05;100.00;96752.03;5118836;27;20245;-71
2023/04/18 21:16:19;;;;;;;1.80;1.57;;;;;;;9.94;100.00;96754.09;5118681;27;20282;-71
2023/04/18 21:18:46;;;;;;;1.20;1.13;;;;;;;9.96;100.00;96758.25;5117996;27;20206;-71
2023/04/18 21:21:12;;;;;;;4.37;1.47;;;;;;;9.91;100.00;96757.06;5118630;27;20598;-71
2023/04/18 21:23:42;;;;;;;0.93;0.93;;;;;;;10.02;100.00;96759.44;5118585;27;20222;-71
2023/04/18 21:26:11;;;;;;;1.23;1.07;;;;;;;10.06;100.00;96758.94;5119151;27;20854;-71
2023/04/18 21:28:53;;;;;;;1.83;1.70;;;;;;;10.04;100.00;96758.31;5118159;27;20230;-71
2023/04/18 21:31:20;;;;;;;2.07;1.17;;;;;;;9.88;100.00;96760.84;5118788;27;20249;-71
2023/04/18 21:33:46;;;;;;;2.03;1.33;;;;;;;9.87;100.00;96761.81;5118208;27;20797;-71
2023/04/18 21:36:13;;;;;;;1.37;1.23;;;;;;;9.87;100.00;96766.28;5118288;27;20251;-71
2023/04/18 21:38:39;;;;;;;2.30;0.73;;;;;;;9.92;100.00;96764.78;5118320;27;20222;-71
2023/04/18 21:41:06;;;;;;;1.83;1.70;;;;;;;9.85;100.00;96761.16;5118300;27;20218;-71
2023/04/18 21:43:33;;;;;;;1.30;1.20;;;;;;;9.95;100.00;96755.75;5118338;27;20222;-71
2023/04/18 21:46:01;;;;;;;1.77;1.67;;;;;;;10.02;100.00;96760.25;5119215;27;20206;-71
2023/04/18 21:48:27;;;;;;;4.73;1.93;;;;;;;9.84;100.00;96759.50;5117454;27;20199;-71
2023/04/18 21:50:54;;;;;;;1.13;1.07;;;;;;;9.91;100.00;96759.69;5118866;27;20195;-71
2023/04/18 21:53:21;;;;;;;0.60;0.60;;;;;;;9.87;100.00;96758.38;5119227;27;20240;-71
2023/04/18 21:55:47;;;;;;;1.90;1.67;;;;;;;9.73;100.00;96751.91;5118949;27;20206;-71
2023/04/18 21:58:13;;;;;;;0.80;0.80;;;;;;;9.80;100.00;96752.94;5117060;27;20552;-71
2023/04/18 22:00:40;;;;;;;2.87;1.83;;;;;;;9.68;100.00;96752.56;5119105;27;20202;-71
2023/04/18 22:03:08;;;;;;;1.10;1.10;;;;;;;9.79;100.00;96753.91;5116968;27;20226;-71
2023/04/18 22:05:35;;;;;;;1.47;1.23;;;;;;;9.75;100.00;96757.84;5118161;27;20741;-71
2023/04/18 22:08:02;;;;;;;1.17;1.10;;;;;;;9.72;100.00;96758.16;5117398;27;20313;-71
2023/04/18 22:10:28;;;;;;;2.83;1.80;;;;;;;9.64;100.00;96761.75;5118677;27;20271;-71
2023/04/18 22:12:55;;;;;;;3.60;1.27;;;;;;;9.68;100.00;96754.19;5117433;27;20221;-71
2023/04/18 22:15:22;;;;;;;0.70;0.63;;;;;;;9.64;100.00;96752.03;5118506;27;20206;-71
2023/04/18 22:17:49;;;;;;;1.03;0.70;;;;;;;9.63;100.00;96746.94;5117355;27;20206;-71
2023/04/18 22:20:17;;;;;;;1.33;1.23;;;;;;;9.73;100.00;96745.81;5118038;27;20198;-71
2023/04/18 22:22:43;;;;;;;2.10;1.23;;;;;;;9.71;100.00;96748.63;5117618;27;20233;-71
2023/04/18 22:25:11;;;;;;;0.90;0.90;;;;;;;9.70;100.00;96739.06;5117933;27;20210;-71
2023/04/18 22:27:37;;;;;;;1.30;1.03;;;;;;;9.69;100.00;96747.94;5116798;27;20719;-71
2023/04/18 22:30:05;;;;;;;1.00;1.00;;;;;;;9.73;100.00;96738.75;5117726;27;20203;-71
2023/04/18 22:32:32;;;;;;;2.17;1.50;;;;;;;9.66;100.00;96744.00;5117201;27;20701;-71
2023/04/18 22:34:58;;;;;;;0.80;0.80;;;;;;;9.66;100.00;96739.56;5117730;27;20247;-71
2023/04/18 22:37:26;;;;;;;0.70;0.70;;;;;;;9.74;100.00;96743.03;5116540;27;20209;-71
2023/04/18 22:39:53;;;;;;;1.40;1.30;;;;;;;9.64;100.00;96738.88;5117618;27;20202;-71
2023/04/18 22:42:19;;;;;;;2.17;1.97;;;;;;;9.63;100.00;96755.66;5116833;27;20225;-71
2023/04/18 22:44:45;;;;;;;1.40;0.70;;;;;;;9.71;100.00;96753.03;5117293;27;20230;-72
2023/04/18 22:47:12;;;;;;;1.30;1.20;;;;;;;9.64;100.00;96748.59;5117963;27;20205;-72
2023/04/18 22:49:39;;;;;;;2.10;1.10;;;;;;;9.65;100.00;96747.59;5117113;27;20213;-70